»·PEaware :: N596MT KPAE-KPDX

N596MT :: KPAE-KPDX

FLIGHT INFORMATION

Flight Status: Arrived
Operator: Privately registered:
United States
More flights under this callsign
Pilot: Sam F. (29954)
Aircraft: CIRRUS SR-22 TURBO
(S22T)
More flights by this aircraft type
Origin: KPAE Paine Field/Snohomish Co.
United States
Destination: KPDX Portland Intl
United States
More flights between these airports :: More routes between these airports
Route: +PAINE6 PAE ARPEE V165 OLM V287 BTG
File this flight plan on PilotEdge
Remarks:
Altitude:
(Current/Filed)
9,000ft
Speed:
(Current/Filed)
150kts
Departed: 01-Aug-20 04:55 PM
Arrived: 01-Aug-20 06:12 PM
Distance/Time
Traveled:
140nm/1:17
Distance/Time
To Go:
Arrived

Flight Plot

Page will automatically refresh every two minutes.


Map Options




Map Legend


Flown Route
Filed Route
Departure Airport
Arrival Airport
Navaid (VOR, NDB)
Fix

Horizontal Profiles

Position Reports

Time Latitude Longitude Heading Altitude Ground
Speed
01-Aug-20 16:23 47.905837 -122.277197 134 565ft 0kts
01-Aug-20 16:24 47.905837 -122.277197 134 565ft 0kts
01-Aug-20 16:25 47.905837 -122.277197 134 565ft 0kts
01-Aug-20 16:26 47.905837 -122.277197 134 565ft 0kts
01-Aug-20 16:27 47.905837 -122.277197 134 565ft 0kts
01-Aug-20 16:36 47.905837 -122.277197 134 565ft 0kts
01-Aug-20 16:37 47.905837 -122.277197 134 565ft 0kts
01-Aug-20 16:38 47.905837 -122.277197 134 565ft 0kts
01-Aug-20 16:39 47.905837 -122.277197 134 565ft 0kts
01-Aug-20 16:40 47.905837 -122.277197 134 565ft 0kts
01-Aug-20 16:41 47.905809 -122.277154 134 565ft 0kts
01-Aug-20 16:42 47.905479 -122.277467 217 565ft 0kts
01-Aug-20 16:43 47.905161 -122.277336 230 565ft 0kts
01-Aug-20 16:44 47.905161 -122.277336 230 565ft 0kts
01-Aug-20 16:45 47.905161 -122.277336 230 565ft 0kts
01-Aug-20 16:46 47.904771 -122.277268 133 565ft 6kts
01-Aug-20 16:47 47.903343 -122.275077 134 566ft 8kts
01-Aug-20 16:48 47.901053 -122.272275 178 565ft 10kts
01-Aug-20 16:49 47.899121 -122.272265 183 565ft 0kts
01-Aug-20 16:50 47.899121 -122.272265 183 565ft 0kts
01-Aug-20 16:51 47.899121 -122.272265 183 565ft 0kts
01-Aug-20 16:52 47.899121 -122.272265 183 565ft 0kts
01-Aug-20 16:53 47.898675 -122.271953 145 565ft 6kts
01-Aug-20 16:54 47.915924 -122.271767 353 1315ft 98kts
01-Aug-20 16:55 47.947873 -122.271428 357 2001ft 130kts
01-Aug-20 16:56 47.983079 -122.271649 354 2488ft 127kts
01-Aug-20 16:57 48.019313 -122.272023 355 3851ft 134kts
01-Aug-20 16:58 48.057236 -122.272894 353 5127ft 140kts
01-Aug-20 16:59 48.061281 -122.311778 229 6417ft 118kts
01-Aug-20 17:00 48.042472 -122.351613 231 7816ft 118kts
01-Aug-20 17:01 48.023799 -122.393126 230 9010ft 133kts
01-Aug-20 17:02 47.999704 -122.443323 231 9005ft 156kts
01-Aug-20 17:03 47.974315 -122.495962 230 9002ft 157kts
01-Aug-20 17:04 47.948303 -122.548485 231 9017ft 157kts
01-Aug-20 17:05 47.922274 -122.601313 232 9006ft 158kts
01-Aug-20 17:06 47.896059 -122.654574 231 8996ft 159kts
01-Aug-20 17:07 47.869799 -122.707906 231 8991ft 159kts
01-Aug-20 17:08 47.843598 -122.761133 231 8984ft 160kts
01-Aug-20 17:09 47.802825 -122.780234 188 8983ft 160kts
01-Aug-20 17:10 47.758889 -122.786890 187 8982ft 160kts
01-Aug-20 17:11 47.714436 -122.792970 187 8982ft 160kts
01-Aug-20 17:12 47.669791 -122.798839 187 8982ft 161kts
01-Aug-20 17:13 47.624122 -122.804751 186 8982ft 168kts
01-Aug-20 17:14 47.578468 -122.810604 187 8981ft 162kts
01-Aug-20 17:15 47.534641 -122.823921 191 8982ft 161kts
01-Aug-20 17:16 47.490155 -122.832882 188 8981ft 161kts
01-Aug-20 17:17 47.445604 -122.839787 187 8981ft 161kts
01-Aug-20 17:18 47.400959 -122.845986 187 8981ft 161kts
01-Aug-20 17:19 47.356284 -122.851937 187 8981ft 161kts
01-Aug-20 17:20 47.311397 -122.857810 187 8981ft 162kts
01-Aug-20 17:21 47.266355 -122.863669 187 8981ft 163kts
01-Aug-20 17:22 47.221031 -122.869551 188 8981ft 164kts
01-Aug-20 17:23 47.176217 -122.875360 188 8981ft 166kts
01-Aug-20 17:24 47.130389 -122.881288 188 8981ft 166kts
01-Aug-20 17:25 47.084428 -122.887218 188 8980ft 166kts
01-Aug-20 17:26 47.038174 -122.893176 188 8979ft 166kts
01-Aug-20 17:27 46.992084 -122.899008 188 8979ft 167kts
01-Aug-20 17:28 46.945891 -122.896577 158 8981ft 173kts
01-Aug-20 17:29 46.899690 -122.882771 174 8980ft 170kts
01-Aug-20 17:30 46.852985 -122.871011 174 8979ft 171kts
01-Aug-20 17:31 46.806052 -122.859030 174 8974ft 171kts
01-Aug-20 17:32 46.759133 -122.847015 174 8969ft 171kts
01-Aug-20 17:33 46.712137 -122.834981 174 8964ft 172kts
01-Aug-20 17:34 46.664972 -122.822921 174 8964ft 172kts
01-Aug-20 17:35 46.617935 -122.810910 174 8964ft 172kts
01-Aug-20 17:36 46.570762 -122.798882 174 8963ft 172kts
01-Aug-20 17:37 46.523654 -122.786897 174 8963ft 171kts
01-Aug-20 17:38 46.477091 -122.775070 174 8963ft 169kts
01-Aug-20 17:39 46.431042 -122.763394 173 8963ft 167kts
01-Aug-20 17:40 46.385547 -122.751874 173 8963ft 165kts
01-Aug-20 17:41 46.340311 -122.740424 173 8963ft 164kts
01-Aug-20 17:42 46.295934 -122.723823 167 8996ft 163kts
01-Aug-20 17:43 46.251701 -122.709041 171 9036ft 164kts
01-Aug-20 17:44 46.206774 -122.697113 173 9036ft 164kts
01-Aug-20 17:45 46.161610 -122.686172 173 9036ft 164kts
01-Aug-20 17:47 46.116489 -122.675604 173 9035ft 164kts
01-Aug-20 17:48 46.074224 -122.648783 155 9035ft 168kts
01-Aug-20 17:49 46.034094 -122.617294 155 8205ft 161kts
01-Aug-20 17:50 45.995060 -122.587498 155 7195ft 158kts
01-Aug-20 17:51 45.956251 -122.558917 155 6181ft 156kts
01-Aug-20 17:52 45.917647 -122.532250 156 5191ft 154kts
01-Aug-20 17:53 45.879478 -122.505733 154 5021ft 156kts
01-Aug-20 17:54 45.840266 -122.476578 154 5033ft 160kts
01-Aug-20 17:55 45.797839 -122.455287 166 5014ft 162kts
01-Aug-20 17:56 45.754688 -122.436945 166 4211ft 164kts
01-Aug-20 17:57 45.712056 -122.418275 165 4009ft 158kts
01-Aug-20 17:58 45.670414 -122.400486 165 4011ft 154kts
01-Aug-20 17:59 45.629278 -122.382296 165 4016ft 154kts
01-Aug-20 18:00 45.587905 -122.364497 165 3271ft 157kts
01-Aug-20 18:00 45.555203 -122.350341 165 3056ft 135kts
01-Aug-20 18:02 45.513818 -122.332403 166 3056ft 130kts
01-Aug-20 18:03 45.479700 -122.317917 166 3091ft 129kts
01-Aug-20 18:04 45.456262 -122.334470 291 3024ft 127kts
01-Aug-20 18:04 45.482207 -122.354132 334 3054ft 130kts
01-Aug-20 18:06 45.513377 -122.388798 300 3064ft 114kts
01-Aug-20 18:07 45.529329 -122.427128 296 2337ft 105kts
01-Aug-20 18:07 45.541173 -122.458196 297 1860ft 108kts
01-Aug-20 18:08 45.555688 -122.495470 298 1214ft 106kts
01-Aug-20 18:09 45.570211 -122.532202 298 671ft 106kts
01-Aug-20 18:10 45.583044 -122.565602 297 122ft 81kts
01-Aug-20 18:11 45.589065 -122.580944 287 33ft 7kts
01-Aug-20 18:12 45.588525 -122.582268 215 33ft 0kts
01-Aug-20 18:13 45.586975 -122.581979 211 33ft 6kts

Navigation Log

Ident Type
Flight plan parsing failed, navigation log unavailable